Terminal Aerodrome Forecast
Issued by NWS Topeka, KS

Home | Current Version | Previous Version | Text Only | Print | Product List | Glossary Off
Versions: 1 2 3 4 5 6 7 8 9 10 11 12 13 14 15 16 17 18 19 20 21 22 23

000
FTUS43 KTOP 172300
TAFTOP
TAF
KTOP 172327Z 1800/1824 09004KT P6SM FEW015 OVC070
     FM180100 09003KT P6SM BKN025 OVC035
     FM180300 11005KT 4SM -SN BR OVC015
     FM180400 09005KT 1SM -SN BR OVC005
     FM180900 08006KT 4SM -SN BR OVC005=

USA.gov is the U.S. government's official web portal to all federal, state and local government web resources and services.